Airfield :
LOGIN :

Register | Disclaimer

   EN    FR    IT 

 










Legend :    VFR   Marginal VFR   IFR   Intensive IFR   Very Intensive IFR
Visi :
Ceiling :
>= 8 km
>= 3000ft
5 to 8 km
1000 to 3000 ft
1500m to 5 km
500 to 1000 ft
800 to 1500m
200 to 500 ft
< 800m
< 200 ft
Symbols :   Thunderstorms  Fog  Heavy snow  Heavy precipitations  Wind > 20 kt
SIGMETs :     Misc.  Thunderstorms  Icing  Turbulence  Mountain Waves  Volcanic Ashes







- Airport Elevation : 405 ft
- IATA code : ODH


EGVO - RAF Odiham

CURRENT METAR :
  • 191150Z 16012KT 9999 BKN010 BKN120 16/14 Q1002 GRN NOSIG

EXPIRED METARs :
  • 191050Z 14011KT 7000 HZ BKN012 17/15 Q1003 GRN TEMPO 8000 GRN
  • 191018Z 12011KT 4000 HZ SCT007 SCT110 16/15 Q1003 GRN BECMG 5000 GRN
  • 190950Z 13009KT 3500 BR BKN004 BKN006 16/15 Q1004 YLO2 BECMG 4000 SCT005 YLO1

TAF TAF EGVO
Valid from the 19 at 12:00 until the 20 at 00:00 UTC


191047Z 1912/1924 17005KT 8000 HZ FEW010
PROB30
TEMPO 1912/1915 4000 -RADZ SCT006
TEMPO 1918/1921 18018G28KT 4000 RA BKN010
TEMPO 1921/1924 18018G28KT BKN010
No reported NOTAMs for that airfield.



MET'MAP, your aeronautical weather chart ! - Copyright ORBIFLY December 2007 - Disclaimer

ORBIFLY MET'MAP TEAM :

Programming & Development : Alexandra Zaïnal
Concept & Development : Baudouin d'Aumeries
Co-Development & Prog : Marc-Olivier Méhu
Technical & hardware support : Manuel Goepfert

Contact : metmap@orbifly.com




SOURCES & CREDITS :

   NOAA